Terminal Aerodrome Forecast
Issued by NWS Corpus Christi, TX

Home | Current Version | Previous Version | Text Only | Print | Product List | Glossary On
Versions: 1 2 3 4 5 6 7 8 9 10 11 12 13
000
FTUS44 KCRP 262334
TAFCRP
TAF
KCRP 262334Z 2700/2724 15015G20KT P6SM SCT025 BKN040
     FM270300 14015KT P6SM SCT025 BKN250
     FM271000 17005KT P6SM VCSH SCT020 BKN250
      TEMPO 2710/2714 BKN020
     FM272100 14015KT P6SM SCT030 BKN250=

USA.gov is the U.S. government's official web portal to all federal, state and local government web resources and services.